Time,TemperatureF,DewpointF,PressureIn,WindDirection,WindDirectionDegrees,WindSpeedMPH,WindSpeedGustMPH,Humidity,HourlyPrecipIn,Conditions,Clouds,dailyrainin,SoftwareType,DateUTC
2013-03-02 00:00:00,37.3,34.4,30.17,West,267,0.0,0.0,89,0.00,,,0.00,LWC V2.00 B2112,2013-03-02 08:00:00,
2013-03-02 00:05:00,37.5,34.8,30.17,West,267,0.0,0.0,90,0.00,,,0.00,LWC V2.00 B2112,2013-03-02 08:05:00,
2013-03-02 00:10:00,37.3,34.4,30.17,West,267,0.0,2.0,89,0.00,,,0.00,LWC V2.00 B2112,2013-03-02 08:10:00,
2013-03-02 00:15:00,37.3,34.6,30.16,West,267,0.0,0.0,90,0.00,,,0.00,LWC V2.00 B2112,2013-03-02 08:15:00,
2013-03-02 00:20:00,37.5,34.8,30.16,West,267,0.0,0.0,90,0.00,,,0.00,LWC V2.00 B2112,2013-03-02 08:20:00,
2013-03-02 00:25:00,37.6,34.9,30.16,West,267,0.0,0.0,90,0.00,,,0.00,LWC V2.00 B2112,2013-03-02 08:25:00,
2013-03-02 00:30:00,37.3,34.1,30.15,West,267,2.0,6.0,88,0.00,,,0.00,LWC V2.00 B2112,2013-03-02 08:30:00,
2013-03-02 00:35:00,37.8,35.4,30.15,West,268,6.0,6.0,91,0.00,,,0.00,LWC V2.00 B2112,2013-03-02 08:35:00,
2013-03-02 00:40:00,37.3,34.1,30.15,West,268,0.0,0.0,88,0.00,,,0.00,LWC V2.00 B2112,2013-03-02 08:40:00,
2013-03-02 00:45:00,37.3,34.6,30.15,West,268,0.0,0.0,90,0.00,,,0.00,LWC V2.00 B2112,2013-03-02 08:45:00,
2013-03-02 00:50:00,37.2,34.3,30.15,West,268,2.0,2.0,89,0.00,,,0.00,LWC V2.00 B2112,2013-03-02 08:50:00,
2013-03-02 00:55:00,37.0,34.3,30.15,West,268,0.0,1.0,90,0.00,,,0.00,LWC V2.00 B2112,2013-03-02 08:55:00,
2013-03-02 01:00:00,36.8,33.9,30.16,West,268,0.0,0.0,89,0.00,,,0.00,LWC V2.00 B2112,2013-03-02 09:00:00,
2013-03-02 01:05:00,36.6,33.9,30.16,West,268,0.0,0.0,90,0.00,,,0.00,LWC V2.00 B2112,2013-03-02 09:05:00,
2013-03-02 01:10:00,36.6,34.2,30.16,West,268,0.0,0.0,91,0.00,,,0.00,LWC V2.00 B2112,2013-03-02 09:10:00,
2013-03-02 01:15:00,36.3,33.4,30.15,NW,318,1.0,4.0,89,0.00,,,0.00,LWC V2.00 B2112,2013-03-02 09:15:00,
2013-03-02 01:20:00,36.2,33.8,30.15,NW,318,0.0,0.0,91,0.00,,,0.00,LWC V2.00 B2112,2013-03-02 09:20:00,
2013-03-02 01:25:00,36.0,33.6,30.15,NW,318,0.0,0.0,91,0.00,,,0.00,LWC V2.00 B2112,2013-03-02 09:25:00,
2013-03-02 01:30:00,36.2,34.1,30.15,NW,318,0.0,0.0,92,0.00,,,0.00,LWC V2.00 B2112,2013-03-02 09:30:00,
2013-03-02 01:35:00,36.8,34.7,30.15,NW,318,0.0,0.0,92,0.00,,,0.00,LWC V2.00 B2112,2013-03-02 09:35:00,
2013-03-02 01:40:00,36.6,33.9,30.15,NW,318,0.0,0.0,90,0.00,,,0.00,LWC V2.00 B2112,2013-03-02 09:40:00,
2013-03-02 01:45:00,36.8,34.4,30.15,NW,318,2.0,2.0,91,0.00,,,0.00,LWC V2.00 B2112,2013-03-02 09:45:00,
2013-03-02 01:50:00,36.8,33.9,30.15,NW,318,0.0,4.0,89,0.00,,,0.00,LWC V2.00 B2112,2013-03-02 09:50:00,
2013-03-02 01:55:00,36.5,33.9,30.15,NW,318,0.0,0.0,90,0.00,,,0.00,LWC V2.00 B2112,2013-03-02 09:55:00,
2013-03-02 02:00:00,36.5,33.9,30.14,NW,318,0.0,0.0,90,0.00,,,0.00,LWC V2.00 B2112,2013-03-02 10:00:00,
2013-03-02 02:02:00,36.5,33.9,30.14,NW,318,2.0,2.0,90,0.00,,,0.00,LWC V2.00 B2112,2013-03-02 10:02:00,
2013-03-02 02:07:00,36.5,34.1,30.14,NW,318,0.0,0.0,91,0.00,,,0.00,LWC V2.00 B2112,2013-03-02 10:07:00,
2013-03-02 02:12:00,37.0,34.3,30.14,NW,318,0.0,0.0,90,0.00,,,0.00,LWC V2.00 B2112,2013-03-02 10:12:00,
2013-03-02 02:17:00,37.3,34.4,30.14,NW,318,2.0,4.0,89,0.00,,,0.00,LWC V2.00 B2112,2013-03-02 10:17:00,
2013-03-02 02:22:00,37.6,34.4,30.14,NW,318,2.0,4.0,88,0.00,,,0.00,LWC V2.00 B2112,2013-03-02 10:22:00,
2013-03-02 02:27:00,37.5,34.6,30.14,NW,318,0.0,0.0,89,0.00,,,0.00,LWC V2.00 B2112,2013-03-02 10:27:00,
2013-03-02 02:32:00,37.5,34.6,30.13,NW,318,1.0,2.0,89,0.00,,,0.00,LWC V2.00 B2112,2013-03-02 10:32:00,
2013-03-02 02:34:00,37.3,34.4,30.13,NW,318,4.0,4.0,89,0.00,,,0.00,LWC V2.00 B2112,2013-03-02 10:34:00,
2013-03-02 02:39:00,37.2,34.3,30.13,NW,318,0.0,0.0,89,0.00,,,0.00,LWC V2.00 B2112,2013-03-02 10:39:00,
2013-03-02 02:44:00,37.0,34.1,30.13,NW,318,0.0,0.0,89,0.00,,,0.00,LWC V2.00 B2112,2013-03-02 10:44:00,
2013-03-02 02:49:00,36.9,34.0,30.13,NW,318,0.0,0.0,89,0.00,,,0.00,LWC V2.00 B2112,2013-03-02 10:49:00,
2013-03-02 02:54:00,36.9,34.2,30.13,NW,318,0.0,0.0,90,0.00,,,0.00,LWC V2.00 B2112,2013-03-02 10:54:00,
2013-03-02 02:59:00,36.8,34.1,30.13,NW,318,0.0,2.0,90,0.00,,,0.00,LWC V2.00 B2112,2013-03-02 10:59:00,
2013-03-02 03:04:00,36.6,33.9,30.13,NW,318,0.0,0.0,90,0.00,,,0.00,LWC V2.00 B2112,2013-03-02 11:04:00,
2013-03-02 03:09:00,36.6,33.9,30.13,NW,318,0.0,0.0,90,0.00,,,0.00,LWC V2.00 B2112,2013-03-02 11:09:00,
2013-03-02 03:14:00,36.6,33.9,30.12,NW,318,0.0,0.0,90,0.00,,,0.00,LWC V2.00 B2112,2013-03-02 11:14:00,
2013-03-02 03:19:00,36.9,34.2,30.12,NW,318,0.0,2.0,90,0.00,,,0.00,LWC V2.00 B2112,2013-03-02 11:19:00,
2013-03-02 03:24:00,36.8,34.4,30.12,NW,318,0.0,4.0,91,0.00,,,0.00,LWC V2.00 B2112,2013-03-02 11:24:00,
2013-03-02 03:29:00,36.6,33.9,30.13,NW,318,0.0,0.0,90,0.00,,,0.00,LWC V2.00 B2112,2013-03-02 11:29:00,
2013-03-02 03:34:00,36.6,34.2,30.13,NW,318,0.0,1.0,91,0.00,,,0.00,LWC V2.00 B2112,2013-03-02 11:34:00,
2013-03-02 03:39:00,36.5,34.1,30.13,NW,318,0.0,0.0,91,0.00,,,0.00,LWC V2.00 B2112,2013-03-02 11:39:00,
2013-03-02 03:44:00,36.5,34.1,30.12,NW,318,0.0,0.0,91,0.00,,,0.00,LWC V2.00 B2112,2013-03-02 11:44:00,
2013-03-02 03:49:00,36.8,34.7,30.12,NW,318,0.0,0.0,92,0.00,,,0.00,LWC V2.00 B2112,2013-03-02 11:49:00,
2013-03-02 03:55:00,37.0,34.3,30.12,NW,318,2.0,2.0,90,0.00,,,0.00,LWC V2.00 B2112,2013-03-02 11:55:00,
2013-03-02 04:00:00,36.9,34.2,30.11,NW,318,0.0,0.0,90,0.00,,,0.00,LWC V2.00 B2112,2013-03-02 12:00:00,
2013-03-02 04:05:00,36.6,33.9,30.11,NW,318,0.0,0.0,90,0.00,,,0.00,LWC V2.00 B2112,2013-03-02 12:05:00,
2013-03-02 04:10:00,36.9,34.2,30.11,NW,318,1.0,4.0,90,0.00,,,0.00,LWC V2.00 B2112,2013-03-02 12:10:00,
2013-03-02 04:15:00,36.8,33.6,30.11,NW,318,0.0,0.0,88,0.00,,,0.00,LWC V2.00 B2112,2013-03-02 12:15:00,
2013-03-02 04:20:00,36.8,33.9,30.11,NW,318,0.0,2.0,89,0.00,,,0.00,LWC V2.00 B2112,2013-03-02 12:20:00,
2013-03-02 04:25:00,36.6,33.4,30.11,NW,318,0.0,0.0,88,0.00,,,0.00,LWC V2.00 B2112,2013-03-02 12:25:00,
2013-03-02 04:30:00,36.5,33.6,30.11,NW,318,0.0,0.0,89,0.00,,,0.00,LWC V2.00 B2112,2013-03-02 12:30:00,
2013-03-02 04:35:00,36.5,33.9,30.11,NW,318,0.0,0.0,90,0.00,,,0.00,LWC V2.00 B2112,2013-03-02 12:35:00,
2013-03-02 04:40:00,36.9,34.0,30.11,NW,318,0.0,0.0,89,0.00,,,0.00,LWC V2.00 B2112,2013-03-02 12:40:00,
2013-03-02 04:45:00,37.0,33.8,30.11,NW,318,0.0,0.0,88,0.00,,,0.00,LWC V2.00 B2112,2013-03-02 12:45:00,
2013-03-02 04:50:00,36.9,33.7,30.11,NW,318,0.0,0.0,88,0.00,,,0.00,LWC V2.00 B2112,2013-03-02 12:50:00,
2013-03-02 04:55:00,36.8,33.6,30.11,NW,318,0.0,0.0,88,0.00,,,0.00,LWC V2.00 B2112,2013-03-02 12:55:00,
2013-03-02 05:00:00,36.8,33.9,30.11,NW,318,0.0,0.0,89,0.00,,,0.00,LWC V2.00 B2112,2013-03-02 13:00:00,
2013-03-02 05:05:00,36.8,33.9,30.11,NW,318,0.0,2.0,89,0.00,,,0.00,LWC V2.00 B2112,2013-03-02 13:05:00,
2013-03-02 05:10:00,36.6,33.7,30.11,NW,318,0.0,0.0,89,0.00,,,0.00,LWC V2.00 B2112,2013-03-02 13:10:00,
2013-03-02 05:15:00,36.6,33.7,30.11,NW,318,0.0,0.0,89,0.00,,,0.00,LWC V2.00 B2112,2013-03-02 13:15:00,
2013-03-02 05:20:00,36.6,33.7,30.11,NW,318,0.0,0.0,89,0.00,,,0.00,LWC V2.00 B2112,2013-03-02 13:20:00,
2013-03-02 05:25:00,36.5,33.6,30.11,NW,318,0.0,0.0,89,0.00,,,0.00,LWC V2.00 B2112,2013-03-02 13:25:00,
2013-03-02 05:30:00,36.5,33.6,30.11,NW,318,0.0,0.0,89,0.00,,,0.00,LWC V2.00 B2112,2013-03-02 13:30:00,
2013-03-02 05:35:00,36.3,33.9,30.11,NW,318,0.0,2.0,91,0.00,,,0.00,LWC V2.00 B2112,2013-03-02 13:35:00,
2013-03-02 05:40:00,36.3,33.7,30.11,NW,318,0.0,0.0,90,0.00,,,0.00,LWC V2.00 B2112,2013-03-02 13:40:00,
2013-03-02 05:45:00,36.3,33.7,30.10,NW,318,0.0,2.0,90,0.00,,,0.00,LWC V2.00 B2112,2013-03-02 13:45:00,
2013-03-02 05:50:00,36.5,33.6,30.10,NW,318,0.0,0.0,89,0.00,,,0.00,LWC V2.00 B2112,2013-03-02 13:50:00,
2013-03-02 05:55:00,36.5,33.9,30.10,NW,318,0.0,0.0,90,0.00,,,0.00,LWC V2.00 B2112,2013-03-02 13:55:00,
2013-03-02 06:00:00,36.5,33.6,30.10,NW,318,0.0,0.0,89,0.00,,,0.00,LWC V2.00 B2112,2013-03-02 14:00:00,
2013-03-02 06:05:00,36.8,34.4,30.10,NW,318,4.0,4.0,91,0.00,,,0.00,LWC V2.00 B2112,2013-03-02 14:05:00,
2013-03-02 06:10:00,37.0,33.8,30.10,NW,318,0.0,4.0,88,0.00,,,0.00,LWC V2.00 B2112,2013-03-02 14:10:00,
2013-03-02 06:15:00,36.9,34.0,30.11,NW,318,0.0,6.0,89,0.00,,,0.00,LWC V2.00 B2112,2013-03-02 14:15:00,
2013-03-02 06:20:00,36.9,33.7,30.11,NW,318,0.0,0.0,88,0.00,,,0.00,LWC V2.00 B2112,2013-03-02 14:20:00,
2013-03-02 06:25:00,36.8,33.9,30.11,NW,318,0.0,0.0,89,0.00,,,0.00,LWC V2.00 B2112,2013-03-02 14:25:00,
2013-03-02 06:30:00,36.6,33.7,30.10,NW,318,0.0,0.0,89,0.00,,,0.00,LWC V2.00 B2112,2013-03-02 14:30:00,
2013-03-02 06:35:00,36.6,33.7,30.10,NW,318,0.0,0.0,89,0.00,,,0.00,LWC V2.00 B2112,2013-03-02 14:35:00,
2013-03-02 06:40:00,36.6,33.7,30.10,NW,318,0.0,0.0,89,0.00,,,0.00,LWC V2.00 B2112,2013-03-02 14:40:00,
2013-03-02 06:45:00,36.5,33.6,30.11,NW,318,0.0,0.0,89,0.00,,,0.00,LWC V2.00 B2112,2013-03-02 14:45:00,
2013-03-02 06:50:00,36.3,33.7,30.11,NW,318,0.0,0.0,90,0.00,,,0.00,LWC V2.00 B2112,2013-03-02 14:50:00,
2013-03-02 06:55:00,36.2,33.6,30.11,NW,318,0.0,0.0,90,0.00,,,0.00,LWC V2.00 B2112,2013-03-02 14:55:00,
2013-03-02 07:00:00,36.0,33.6,30.10,NW,318,0.0,0.0,91,0.00,,,0.00,LWC V2.00 B2112,2013-03-02 15:00:00,
2013-03-02 07:05:00,35.9,33.3,30.10,NW,318,0.0,0.0,90,0.00,,,0.00,LWC V2.00 B2112,2013-03-02 15:05:00,
2013-03-02 07:10:00,35.9,33.5,30.10,NW,318,0.0,0.0,91,0.00,,,0.00,LWC V2.00 B2112,2013-03-02 15:10:00,
2013-03-02 07:15:00,35.9,33.5,30.11,NW,318,0.0,0.0,91,0.00,,,0.00,LWC V2.00 B2112,2013-03-02 15:15:00,
2013-03-02 07:20:00,35.8,33.7,30.11,NW,318,0.0,0.0,92,0.00,,,0.00,LWC V2.00 B2112,2013-03-02 15:20:00,
2013-03-02 07:25:00,35.8,33.7,30.11,NW,318,2.0,2.0,92,0.00,,,0.00,LWC V2.00 B2112,2013-03-02 15:25:00,
2013-03-02 07:30:00,35.8,33.7,30.10,NW,318,0.0,0.0,92,0.00,,,0.00,LWC V2.00 B2112,2013-03-02 15:30:00,
2013-03-02 07:35:00,35.8,33.7,30.10,NW,318,0.0,0.0,92,0.00,,,0.00,LWC V2.00 B2112,2013-03-02 15:35:00,
2013-03-02 07:40:00,35.9,33.8,30.10,NW,318,0.0,0.0,92,0.00,,,0.00,LWC V2.00 B2112,2013-03-02 15:40:00,
2013-03-02 07:45:00,35.9,33.8,30.10,NW,318,0.0,0.0,92,0.00,,,0.00,LWC V2.00 B2112,2013-03-02 15:45:00,
2013-03-02 07:50:00,36.0,33.9,30.10,NW,318,0.0,0.0,92,0.00,,,0.00,LWC V2.00 B2112,2013-03-02 15:50:00,
2013-03-02 07:55:00,36.0,33.9,30.10,NW,318,0.0,0.0,92,0.00,,,0.00,LWC V2.00 B2112,2013-03-02 15:55:00,
2013-03-02 08:00:00,36.2,34.1,30.10,NW,318,0.0,0.0,92,0.00,,,0.00,LWC V2.00 B2112,2013-03-02 16:00:00,
2013-03-02 08:05:00,36.3,34.2,30.10,NW,318,0.0,0.0,92,0.00,,,0.00,LWC V2.00 B2112,2013-03-02 16:05:00,
2013-03-02 08:10:00,36.5,34.4,30.10,NW,318,0.0,0.0,92,0.00,,,0.00,LWC V2.00 B2112,2013-03-02 16:10:00,
2013-03-02 08:15:00,36.5,34.4,30.10,NW,318,0.0,0.0,92,0.00,,,0.00,LWC V2.00 B2112,2013-03-02 16:15:00,
2013-03-02 08:20:00,36.6,34.5,30.10,NW,318,0.0,0.0,92,0.00,,,0.00,LWC V2.00 B2112,2013-03-02 16:20:00,
2013-03-02 08:25:00,36.8,34.7,30.10,NW,318,0.0,0.0,92,0.00,,,0.00,LWC V2.00 B2112,2013-03-02 16:25:00,
2013-03-02 08:30:00,36.9,34.8,30.10,NW,318,0.0,0.0,92,0.00,,,0.00,LWC V2.00 B2112,2013-03-02 16:30:00,
2013-03-02 08:35:00,37.0,34.6,30.10,NW,318,0.0,0.0,91,0.00,,,0.00,LWC V2.00 B2112,2013-03-02 16:35:00,
2013-03-02 08:40:00,37.3,34.6,30.10,NW,318,1.0,1.0,90,0.00,,,0.00,LWC V2.00 B2112,2013-03-02 16:40:00,
2013-03-02 08:45:00,37.8,34.6,30.10,NW,318,2.0,6.0,88,0.00,,,0.00,LWC V2.00 B2112,2013-03-02 16:45:00,
2013-03-02 08:50:00,38.2,35.0,30.10,NW,318,0.0,2.0,88,0.00,,,0.00,LWC V2.00 B2112,2013-03-02 16:50:00,
2013-03-02 08:55:00,38.5,35.3,30.10,NW,318,0.0,0.0,88,0.00,,,0.00,LWC V2.00 B2112,2013-03-02 16:55:00,
2013-03-02 09:00:00,38.6,35.4,30.10,NW,318,0.0,0.0,88,0.00,,,0.00,LWC V2.00 B2112,2013-03-02 17:00:00,
2013-03-02 09:05:00,39.1,35.9,30.10,NW,318,0.0,0.0,88,0.00,,,0.00,LWC V2.00 B2112,2013-03-02 17:05:00,
2013-03-02 09:10:00,39.1,35.6,30.10,NW,318,0.0,0.0,87,0.00,,,0.00,LWC V2.00 B2112,2013-03-02 17:10:00,
2013-03-02 09:15:00,39.3,35.5,30.09,NW,318,0.0,0.0,86,0.00,,,0.00,LWC V2.00 B2112,2013-03-02 17:15:00,
2013-03-02 09:20:00,39.6,35.5,30.09,NW,318,0.0,0.0,85,0.00,,,0.00,LWC V2.00 B2112,2013-03-02 17:20:00,
2013-03-02 09:25:00,40.1,36.0,30.09,NW,318,0.0,0.0,85,0.00,,,0.00,LWC V2.00 B2112,2013-03-02 17:25:00,
2013-03-02 09:30:00,40.6,36.5,30.08,NW,318,0.0,0.0,85,0.00,,,0.00,LWC V2.00 B2112,2013-03-02 17:30:00,
2013-03-02 09:35:00,41.1,36.3,30.08,NW,318,0.0,0.0,83,0.00,,,0.00,LWC V2.00 B2112,2013-03-02 17:35:00,
2013-03-02 09:40:00,41.5,36.4,30.08,NW,318,0.0,0.0,82,0.00,,,0.00,LWC V2.00 B2112,2013-03-02 17:40:00,
2013-03-02 09:45:00,41.9,35.9,30.08,SE,124,0.0,0.0,79,0.00,,,0.00,LWC V2.00 B2112,2013-03-02 17:45:00,
2013-03-02 09:50:00,42.3,36.3,30.08,SE,124,1.0,1.0,79,0.00,,,0.00,LWC V2.00 B2112,2013-03-02 17:50:00,
2013-03-02 09:55:00,42.8,36.4,30.08,SE,124,0.0,2.0,78,0.00,,,0.00,LWC V2.00 B2112,2013-03-02 17:55:00,
2013-03-02 10:00:00,43.2,36.8,30.07,SSE,151,0.0,2.0,78,0.00,,,0.00,LWC V2.00 B2112,2013-03-02 18:00:00,
2013-03-02 10:05:00,43.5,36.8,30.07,SSE,160,0.0,2.0,77,0.00,,,0.00,LWC V2.00 B2112,2013-03-02 18:05:00,
2013-03-02 10:10:00,43.9,36.8,30.07,South,182,0.0,0.0,76,0.00,,,0.00,LWC V2.00 B2112,2013-03-02 18:10:00,
2013-03-02 10:15:00,44.2,37.1,30.06,SSE,158,0.0,0.0,76,0.00,,,0.00,LWC V2.00 B2112,2013-03-02 18:15:00,
2013-03-02 10:20:00,44.5,36.7,30.06,South,172,0.0,2.0,74,0.00,,,0.00,LWC V2.00 B2112,2013-03-02 18:20:00,
2013-03-02 10:25:00,44.8,36.7,30.06,South,171,0.0,2.0,73,0.00,,,0.00,LWC V2.00 B2112,2013-03-02 18:25:00,
2013-03-02 10:30:00,45.2,37.4,30.05,South,171,0.0,0.0,74,0.00,,,0.00,LWC V2.00 B2112,2013-03-02 18:30:00,
2013-03-02 10:35:00,45.7,37.5,30.05,South,171,0.0,0.0,73,0.00,,,0.00,LWC V2.00 B2112,2013-03-02 18:35:00,
2013-03-02 10:40:00,45.7,37.2,30.05,SE,145,0.0,4.0,72,0.00,,,0.00,LWC V2.00 B2112,2013-03-02 18:40:00,
2013-03-02 10:45:00,46.0,37.1,30.04,SE,145,0.0,2.0,71,0.00,,,0.00,LWC V2.00 B2112,2013-03-02 18:45:00,
2013-03-02 10:50:00,46.2,37.0,30.04,SE,145,0.0,0.0,70,0.00,,,0.00,LWC V2.00 B2112,2013-03-02 18:50:00,
2013-03-02 10:55:00,46.4,37.5,30.04,SE,145,1.0,2.0,71,0.00,,,0.00,LWC V2.00 B2112,2013-03-02 18:55:00,
2013-03-02 11:00:00,46.7,38.2,30.04,SE,145,0.0,1.0,72,0.00,,,0.00,LWC V2.00 B2112,2013-03-02 19:00:00,
2013-03-02 11:05:00,47.0,37.7,30.04,SE,145,0.0,0.0,70,0.00,,,0.00,LWC V2.00 B2112,2013-03-02 19:05:00,
2013-03-02 11:10:00,47.1,37.5,30.04,SE,144,0.0,0.0,69,0.00,,,0.00,LWC V2.00 B2112,2013-03-02 19:10:00,
2013-03-02 11:15:00,47.3,37.7,30.03,SE,144,4.0,4.0,69,0.00,,,0.00,LWC V2.00 B2112,2013-03-02 19:15:00,
2013-03-02 11:20:00,47.3,37.7,30.03,ESE,104,0.0,1.0,69,0.00,,,0.00,LWC V2.00 B2112,2013-03-02 19:20:00,
2013-03-02 11:25:00,47.4,37.7,30.03,ESE,103,2.0,4.0,69,0.00,,,0.00,LWC V2.00 B2112,2013-03-02 19:25:00,
2013-03-02 11:30:00,47.6,37.9,30.02,ESE,107,2.0,4.0,69,0.00,,,0.00,LWC V2.00 B2112,2013-03-02 19:30:00,
2013-03-02 11:35:00,47.9,38.2,30.02,ESE,119,0.0,4.0,69,0.00,,,0.00,LWC V2.00 B2112,2013-03-02 19:35:00,
2013-03-02 11:40:00,48.5,38.4,30.02,ESE,119,0.0,1.0,68,0.00,,,0.00,LWC V2.00 B2112,2013-03-02 19:40:00,
2013-03-02 11:45:00,48.9,38.4,30.01,SSE,147,2.0,2.0,67,0.00,,,0.00,LWC V2.00 B2112,2013-03-02 19:45:00,
2013-03-02 11:50:00,49.2,37.9,30.01,South,172,0.0,2.0,65,0.00,,,0.00,LWC V2.00 B2112,2013-03-02 19:50:00,
2013-03-02 11:55:00,49.2,38.3,30.01,SE,136,2.0,6.0,66,0.00,,,0.00,LWC V2.00 B2112,2013-03-02 19:55:00,
2013-03-02 12:00:00,49.4,38.9,30.00,SE,138,0.0,6.0,67,0.00,,,0.00,LWC V2.00 B2112,2013-03-02 20:00:00,
2013-03-02 12:05:00,49.4,38.5,30.00,SE,137,1.0,2.0,66,0.00,,,0.00,LWC V2.00 B2112,2013-03-02 20:05:00,
2013-03-02 12:10:00,49.6,38.7,30.00,SE,137,0.0,4.0,66,0.00,,,0.00,LWC V2.00 B2112,2013-03-02 20:10:00,
2013-03-02 12:15:00,50.1,38.8,29.99,SSE,148,0.0,2.0,65,0.00,,,0.00,LWC V2.00 B2112,2013-03-02 20:15:00,
2013-03-02 12:20:00,50.4,38.3,29.99,SSE,148,0.0,0.0,63,0.00,,,0.00,LWC V2.00 B2112,2013-03-02 20:20:00,
2013-03-02 12:25:00,50.7,38.2,29.99,SSE,152,0.0,2.0,62,0.00,,,0.00,LWC V2.00 B2112,2013-03-02 20:25:00,
2013-03-02 12:30:00,51.1,38.1,29.98,SSE,152,0.0,2.0,61,0.00,,,0.00,LWC V2.00 B2112,2013-03-02 20:30:00,
2013-03-02 12:35:00,51.1,38.5,29.98,SSE,150,0.0,4.0,62,0.00,,,0.00,LWC V2.00 B2112,2013-03-02 20:35:00,
2013-03-02 12:40:00,51.3,38.7,29.98,SSE,157,0.0,0.0,62,0.00,,,0.00,LWC V2.00 B2112,2013-03-02 20:40:00,
2013-03-02 12:45:00,51.7,38.7,29.97,SSE,155,1.0,2.0,61,0.00,,,0.00,LWC V2.00 B2112,2013-03-02 20:45:00,
2013-03-02 12:50:00,52.0,39.4,29.97,SSE,155,0.0,1.0,62,0.00,,,0.00,LWC V2.00 B2112,2013-03-02 20:50:00,
2013-03-02 12:55:00,52.3,38.8,29.97,SSE,157,4.0,4.0,60,0.00,,,0.00,LWC V2.00 B2112,2013-03-02 20:55:00,
2013-03-02 13:00:00,52.5,39.0,29.96,South,175,1.0,2.0,60,0.00,,,0.00,LWC V2.00 B2112,2013-03-02 21:00:00,
2013-03-02 13:05:00,52.3,38.4,29.96,SE,145,0.0,6.0,59,0.00,,,0.00,LWC V2.00 B2112,2013-03-02 21:05:00,
2013-03-02 13:10:00,52.2,38.7,29.96,SSE,157,1.0,4.0,60,0.00,,,0.00,LWC V2.00 B2112,2013-03-02 21:10:00,
2013-03-02 13:15:00,52.2,38.7,29.95,SSE,158,0.0,2.0,60,0.00,,,0.00,LWC V2.00 B2112,2013-03-02 21:15:00,
2013-03-02 13:20:00,52.2,38.7,29.95,SSE,152,0.0,6.0,60,0.00,,,0.00,LWC V2.00 B2112,2013-03-02 21:20:00,
2013-03-02 13:25:00,52.0,38.5,29.95,ESE,116,1.0,6.0,60,0.00,,,0.00,LWC V2.00 B2112,2013-03-02 21:25:00,
2013-03-02 13:30:00,52.2,39.6,29.94,SSW,192,4.0,4.0,62,0.00,,,0.00,LWC V2.00 B2112,2013-03-02 21:30:00,
2013-03-02 13:35:00,52.3,38.8,29.94,SE,143,2.0,6.0,60,0.00,,,0.00,LWC V2.00 B2112,2013-03-02 21:35:00,
2013-03-02 13:40:00,52.5,38.6,29.94,SE,143,4.0,4.0,59,0.00,,,0.00,LWC V2.00 B2112,2013-03-02 21:40:00,
2013-03-02 13:45:00,52.6,39.1,29.93,SSW,198,0.0,2.0,60,0.00,,,0.00,LWC V2.00 B2112,2013-03-02 21:45:00,
2013-03-02 13:50:00,52.9,39.0,29.93,South,189,0.0,2.0,59,0.00,,,0.00,LWC V2.00 B2112,2013-03-02 21:50:00,
2013-03-02 13:55:00,53.2,38.4,29.93,SE,140,1.0,1.0,57,0.00,,,0.00,LWC V2.00 B2112,2013-03-02 21:55:00,
2013-03-02 14:00:00,53.2,38.8,29.92,SE,137,0.0,1.0,58,0.00,,,0.00,LWC V2.00 B2112,2013-03-02 22:00:00,
2013-03-02 14:05:00,53.5,39.1,29.92,SE,137,0.0,0.0,58,0.00,,,0.00,LWC V2.00 B2112,2013-03-02 22:05:00,
2013-03-02 14:10:00,54.1,39.7,29.92,SE,138,0.0,0.0,58,0.00,,,0.00,LWC V2.00 B2112,2013-03-02 22:10:00,
2013-03-02 14:15:00,54.7,39.8,29.92,SE,140,0.0,2.0,57,0.00,,,0.00,LWC V2.00 B2112,2013-03-02 22:15:00,
2013-03-02 14:20:00,55.1,39.2,29.92,SE,145,0.0,0.0,55,0.00,,,0.00,LWC V2.00 B2112,2013-03-02 22:20:00,
2013-03-02 14:25:00,55.3,39.4,29.92,SE,145,0.0,1.0,55,0.00,,,0.00,LWC V2.00 B2112,2013-03-02 22:25:00,
2013-03-02 14:30:00,55.1,39.2,29.91,SE,145,0.0,0.0,55,0.00,,,0.00,LWC V2.00 B2112,2013-03-02 22:30:00,
2013-03-02 14:35:00,55.0,38.7,29.91,SE,145,0.0,1.0,54,0.00,,,0.00,LWC V2.00 B2112,2013-03-02 22:35:00,
2013-03-02 14:40:00,55.3,38.5,29.91,SE,145,0.0,1.0,53,0.00,,,0.00,LWC V2.00 B2112,2013-03-02 22:40:00,
2013-03-02 14:45:00,55.7,39.3,29.91,SE,145,0.0,0.0,54,0.00,,,0.00,LWC V2.00 B2112,2013-03-02 22:45:00,
2013-03-02 14:50:00,56.2,39.3,29.91,SSE,164,0.0,0.0,53,0.00,,,0.00,LWC V2.00 B2112,2013-03-02 22:50:00,
2013-03-02 14:55:00,56.3,38.9,29.91,SSE,155,1.0,2.0,52,0.00,,,0.00,LWC V2.00 B2112,2013-03-02 22:55:00,
2013-03-02 15:00:00,56.3,39.4,29.91,SSE,158,0.0,0.0,53,0.00,,,0.00,LWC V2.00 B2112,2013-03-02 23:00:00,
2013-03-02 15:05:00,56.7,38.8,29.91,SSE,158,0.0,4.0,51,0.00,,,0.00,LWC V2.00 B2112,2013-03-02 23:05:00,
2013-03-02 15:10:00,56.9,39.5,29.91,SSE,158,0.0,2.0,52,0.00,,,0.00,LWC V2.00 B2112,2013-03-02 23:10:00,
2013-03-02 15:15:00,56.7,40.7,29.90,SSE,151,0.0,4.0,55,0.00,,,0.00,LWC V2.00 B2112,2013-03-02 23:15:00,
2013-03-02 15:20:00,56.6,39.2,29.90,SSE,151,0.0,1.0,52,0.00,,,0.00,LWC V2.00 B2112,2013-03-02 23:20:00,
2013-03-02 15:25:00,56.3,39.4,29.90,SE,144,0.0,6.0,53,0.00,,,0.00,LWC V2.00 B2112,2013-03-02 23:25:00,
2013-03-02 15:30:00,56.5,40.1,29.89,SSE,147,1.0,1.0,54,0.00,,,0.00,LWC V2.00 B2112,2013-03-02 23:30:00,
2013-03-02 15:35:00,56.6,39.2,29.89,SE,134,0.0,2.0,52,0.00,,,0.00,LWC V2.00 B2112,2013-03-02 23:35:00,
2013-03-02 15:40:00,56.3,38.9,29.89,SE,138,2.0,2.0,52,0.00,,,0.00,LWC V2.00 B2112,2013-03-02 23:40:00,
2013-03-02 15:45:00,55.9,39.0,29.89,SE,145,1.0,8.0,53,0.00,,,0.00,LWC V2.00 B2112,2013-03-02 23:45:00,
2013-03-02 15:50:00,55.4,39.0,29.89,SE,145,2.0,2.0,54,0.00,,,0.00,LWC V2.00 B2112,2013-03-02 23:50:00,
2013-03-02 15:55:00,55.1,39.2,29.89,SSE,164,0.0,4.0,55,0.00,,,0.00,LWC V2.00 B2112,2013-03-02 23:55:00,
2013-03-02 16:00:00,55.0,39.1,29.89,SW,232,0.0,6.0,55,0.00,,,0.00,LWC V2.00 B2112,2013-03-03 00:00:00,
2013-03-02 16:05:00,54.8,39.4,29.89,South,174,1.0,1.0,56,0.00,,,0.00,LWC V2.00 B2112,2013-03-03 00:05:00,
2013-03-02 16:10:00,54.7,39.8,29.89,East,95,0.0,0.0,57,0.00,,,0.00,LWC V2.00 B2112,2013-03-03 00:10:00,
2013-03-02 16:15:00,54.5,39.6,29.87,East,95,0.0,0.0,57,0.00,,,0.00,LWC V2.00 B2112,2013-03-03 00:15:00,
2013-03-02 16:20:00,54.2,39.7,29.87,East,95,0.0,1.0,58,0.00,,,0.00,LWC V2.00 B2112,2013-03-03 00:20:00,
2013-03-02 16:25:00,54.2,39.7,29.87,East,96,0.0,1.0,58,0.00,,,0.00,LWC V2.00 B2112,2013-03-03 00:25:00,
2013-03-02 16:30:00,53.9,40.8,29.87,East,96,1.0,1.0,61,0.00,,,0.00,LWC V2.00 B2112,2013-03-03 00:30:00,
2013-03-02 16:35:00,53.5,41.2,29.87,East,96,0.0,1.0,63,0.00,,,0.00,LWC V2.00 B2112,2013-03-03 00:35:00,
2013-03-02 16:40:00,52.5,41.1,29.87,SSW,210,0.0,4.0,65,0.00,,,0.00,LWC V2.00 B2112,2013-03-03 00:40:00,
2013-03-02 16:45:00,52.2,39.6,29.85,SSW,209,0.0,2.0,62,0.00,,,0.00,LWC V2.00 B2112,2013-03-03 00:45:00,
2013-03-02 16:50:00,51.1,39.7,29.85,SSW,209,0.0,0.0,65,0.00,,,0.00,LWC V2.00 B2112,2013-03-03 00:50:00,
2013-03-02 16:55:00,51.4,40.0,29.85,ENE,68,0.0,2.0,65,0.00,,,0.00,LWC V2.00 B2112,2013-03-03 00:55:00,
2013-03-02 17:00:00,51.6,40.2,29.83,ENE,73,0.0,1.0,65,0.00,,,0.00,LWC V2.00 B2112,2013-03-03 01:00:00,
2013-03-02 17:05:00,51.3,40.3,29.83,West,280,0.0,2.0,66,0.00,,,0.00,LWC V2.00 B2112,2013-03-03 01:05:00,
2013-03-02 17:10:00,50.4,39.9,29.83,West,267,4.0,8.0,67,0.00,,,0.00,LWC V2.00 B2112,2013-03-03 01:10:00,
2013-03-02 17:15:00,49.8,39.7,29.83,West,267,0.0,0.0,68,0.00,,,0.00,LWC V2.00 B2112,2013-03-03 01:15:00,
2013-03-02 17:20:00,49.6,39.1,29.83,West,267,0.0,0.0,67,0.00,,,0.00,LWC V2.00 B2112,2013-03-03 01:20:00,
2013-03-02 17:25:00,49.2,39.5,29.83,West,267,0.0,0.0,69,0.00,,,0.00,LWC V2.00 B2112,2013-03-03 01:25:00,
2013-03-02 17:30:00,48.9,38.8,29.83,West,267,0.0,0.0,68,0.00,,,0.00,LWC V2.00 B2112,2013-03-03 01:30:00,
2013-03-02 17:35:00,48.2,39.2,29.83,West,267,0.0,0.0,71,0.00,,,0.00,LWC V2.00 B2112,2013-03-03 01:35:00,
2013-03-02 17:40:00,47.7,39.5,29.83,West,267,0.0,0.0,73,0.00,,,0.00,LWC V2.00 B2112,2013-03-03 01:40:00,
2013-03-02 17:45:00,47.1,38.9,29.83,West,267,0.0,0.0,73,0.00,,,0.00,LWC V2.00 B2112,2013-03-03 01:45:00,
2013-03-02 17:50:00,46.4,39.6,29.83,West,267,2.0,6.0,77,0.00,,,0.00,LWC V2.00 B2112,2013-03-03 01:50:00,
2013-03-02 17:55:00,45.8,38.0,29.83,West,267,0.0,4.0,74,0.00,,,0.00,LWC V2.00 B2112,2013-03-03 01:55:00,
2013-03-02 18:00:00,45.4,38.3,29.84,West,267,0.0,0.0,76,0.00,,,0.00,LWC V2.00 B2112,2013-03-03 02:00:00,
2013-03-02 18:05:00,46.4,37.5,29.84,West,274,4.0,6.0,71,0.00,,,0.00,LWC V2.00 B2112,2013-03-03 02:05:00,
2013-03-02 18:10:00,46.7,38.2,29.84,West,274,0.0,0.0,72,0.00,,,0.00,LWC V2.00 B2112,2013-03-03 02:10:00,
2013-03-02 18:15:00,46.5,38.0,29.84,West,274,4.0,4.0,72,0.00,,,0.00,LWC V2.00 B2112,2013-03-03 02:15:00,
2013-03-02 18:20:00,46.5,37.6,29.84,WNW,291,4.0,6.0,71,0.00,,,0.00,LWC V2.00 B2112,2013-03-03 02:20:00,
2013-03-02 18:25:00,47.0,37.4,29.84,WNW,291,0.0,0.0,69,0.00,,,0.00,LWC V2.00 B2112,2013-03-03 02:25:00,
2013-03-02 18:30:00,46.5,37.6,29.84,WNW,291,0.0,2.0,71,0.00,,,0.00,LWC V2.00 B2112,2013-03-03 02:30:00,
2013-03-02 18:35:00,45.8,38.0,29.84,WNW,291,2.0,2.0,74,0.00,,,0.00,LWC V2.00 B2112,2013-03-03 02:35:00,
2013-03-02 18:40:00,46.4,36.0,29.84,WSW,248,6.0,6.0,67,0.00,,,0.00,LWC V2.00 B2112,2013-03-03 02:40:00,
2013-03-02 18:45:00,48.0,35.2,29.85,NW,309,9.0,17.0,61,0.00,,,0.00,LWC V2.00 B2112,2013-03-03 02:45:00,
2013-03-02 18:50:00,49.4,36.1,29.85,NW,319,9.0,10.0,60,0.00,,,0.00,LWC V2.00 B2112,2013-03-03 02:50:00,
2013-03-02 18:55:00,50.5,35.8,29.85,NW,323,7.0,13.0,57,0.00,,,0.00,LWC V2.00 B2112,2013-03-03 02:55:00,
2013-03-02 19:00:00,51.0,36.7,29.86,NW,313,8.0,8.0,58,0.00,,,0.00,LWC V2.00 B2112,2013-03-03 03:00:00,
2013-03-02 19:05:00,51.3,35.7,29.86,NNW,344,15.0,24.0,55,0.00,,,0.00,LWC V2.00 B2112,2013-03-03 03:05:00,
2013-03-02 19:10:00,51.3,36.1,29.86,North,353,2.0,17.0,56,0.00,,,0.00,LWC V2.00 B2112,2013-03-03 03:10:00,
2013-03-02 19:15:00,50.8,37.0,29.88,North,349,6.0,16.0,59,0.00,,,0.00,LWC V2.00 B2112,2013-03-03 03:15:00,
2013-03-02 19:20:00,49.6,37.1,29.88,WNW,296,6.0,13.0,62,0.00,,,0.00,LWC V2.00 B2112,2013-03-03 03:20:00,
2013-03-02 19:25:00,49.2,38.3,29.88,NW,326,6.0,6.0,66,0.00,,,0.00,LWC V2.00 B2112,2013-03-03 03:25:00,
2013-03-02 19:30:00,48.0,40.1,29.89,West,271,2.0,9.0,74,0.00,,,0.01,LWC V2.00 B2112,2013-03-03 03:30:00,
2013-03-02 19:35:00,47.3,38.7,29.89,SW,226,2.0,4.0,72,0.00,,,0.01,LWC V2.00 B2112,2013-03-03 03:35:00,
2013-03-02 19:40:00,46.5,39.7,29.89,SW,226,0.0,2.0,77,0.07,,,0.02,LWC V2.00 B2112,2013-03-03 03:40:00,
2013-03-02 19:45:00,46.0,36.4,29.91,NW,304,2.0,9.0,69,0.07,,,0.02,LWC V2.00 B2112,2013-03-03 03:45:00,
2013-03-02 19:50:00,46.1,35.0,29.91,East,82,1.0,9.0,65,0.05,,,0.02,LWC V2.00 B2112,2013-03-03 03:50:00,
2013-03-02 19:55:00,46.4,35.3,29.91,West,277,2.0,16.0,65,0.00,,,0.02,LWC V2.00 B2112,2013-03-03 03:55:00,
2013-03-02 20:00:00,46.5,34.6,29.92,NW,326,7.0,10.0,63,0.00,,,0.02,LWC V2.00 B2112,2013-03-03 04:00:00,
2013-03-02 20:05:00,46.4,32.4,29.92,North,359,9.0,10.0,58,0.00,,,0.02,LWC V2.00 B2112,2013-03-03 04:05:00,
2013-03-02 20:10:00,46.4,32.9,29.92,NNW,329,6.0,13.0,59,0.00,,,0.02,LWC V2.00 B2112,2013-03-03 04:10:00,
2013-03-02 20:15:00,46.2,30.9,29.92,NW,319,1.0,6.0,55,0.00,,,0.02,LWC V2.00 B2112,2013-03-03 04:15:00,
2013-03-02 20:20:00,46.1,30.4,29.92,NW,311,11.0,15.0,54,0.00,,,0.02,LWC V2.00 B2112,2013-03-03 04:20:00,
2013-03-02 20:25:00,46.1,31.7,29.92,WNW,288,13.0,14.0,57,0.00,,,0.02,LWC V2.00 B2112,2013-03-03 04:25:00,
2013-03-02 20:30:00,46.0,31.6,29.93,NW,308,9.0,14.0,57,0.00,,,0.02,LWC V2.00 B2112,2013-03-03 04:30:00,
2013-03-02 20:35:00,45.8,31.0,29.93,WNW,284,6.0,8.0,56,0.00,,,0.02,LWC V2.00 B2112,2013-03-03 04:35:00,
2013-03-02 20:40:00,45.5,31.6,29.93,NNE,18,6.0,8.0,58,0.00,,,0.02,LWC V2.00 B2112,2013-03-03 04:40:00,
2013-03-02 20:45:00,45.2,30.9,29.94,WSW,248,2.0,8.0,57,0.00,,,0.02,LWC V2.00 B2112,2013-03-03 04:45:00,
2013-03-02 20:50:00,44.8,31.4,29.94,NNW,340,4.0,7.0,59,0.00,,,0.02,LWC V2.00 B2112,2013-03-03 04:50:00,
2013-03-02 20:55:00,44.6,29.9,29.94,West,275,8.0,13.0,56,0.00,,,0.02,LWC V2.00 B2112,2013-03-03 04:55:00,
2013-03-02 21:00:00,44.3,29.6,29.94,NNW,342,10.0,10.0,56,0.00,,,0.02,LWC V2.00 B2112,2013-03-03 05:00:00,
2013-03-02 21:05:00,44.3,29.6,29.94,North,352,7.0,10.0,56,0.00,,,0.02,LWC V2.00 B2112,2013-03-03 05:05:00,
2013-03-02 21:10:00,44.5,30.7,29.94,NNW,342,0.0,8.0,58,0.00,,,0.02,LWC V2.00 B2112,2013-03-03 05:10:00,
2013-03-02 21:15:00,44.2,30.4,29.94,NW,311,4.0,7.0,58,0.00,,,0.02,LWC V2.00 B2112,2013-03-03 05:15:00,
2013-03-02 21:20:00,44.1,31.1,29.94,NNW,340,6.0,7.0,60,0.00,,,0.02,LWC V2.00 B2112,2013-03-03 05:20:00,
2013-03-02 21:25:00,44.1,29.9,29.94,North,349,8.0,10.0,57,0.00,,,0.02,LWC V2.00 B2112,2013-03-03 05:25:00,
2013-03-02 21:30:00,44.2,29.5,29.95,WNW,295,4.0,10.0,56,0.00,,,0.02,LWC V2.00 B2112,2013-03-03 05:30:00,
2013-03-02 21:35:00,44.1,29.4,29.95,NW,320,4.0,4.0,56,0.00,,,0.02,LWC V2.00 B2112,2013-03-03 05:35:00,
2013-03-02 21:40:00,43.3,30.4,29.95,WNW,294,0.0,0.0,60,0.00,,,0.02,LWC V2.00 B2112,2013-03-03 05:40:00,
2013-03-02 21:45:00,42.9,32.0,29.95,WSW,250,0.0,4.0,65,0.00,,,0.02,LWC V2.00 B2112,2013-03-03 05:45:00,
2013-03-02 21:50:00,42.2,29.7,29.95,North,0,0.0,1.0,61,0.00,,,0.02,LWC V2.00 B2112,2013-03-03 05:50:00,
2013-03-02 21:55:00,41.5,31.4,29.95,WSW,258,0.0,0.0,67,0.00,,,0.02,LWC V2.00 B2112,2013-03-03 05:55:00,
2013-03-02 22:00:00,41.2,28.0,29.94,SW,233,0.0,0.0,59,0.00,,,0.02,LWC V2.00 B2112,2013-03-03 06:00:00,
2013-03-02 22:05:00,40.9,30.4,29.94,SW,233,0.0,0.0,66,0.00,,,0.02,LWC V2.00 B2112,2013-03-03 06:05:00,
2013-03-02 22:10:00,40.9,29.7,29.94,SW,236,4.0,4.0,64,0.00,,,0.02,LWC V2.00 B2112,2013-03-03 06:10:00,
2013-03-02 22:15:00,40.3,30.2,29.94,SW,236,0.0,0.0,67,0.00,,,0.02,LWC V2.00 B2112,2013-03-03 06:15:00,
2013-03-02 22:20:00,40.3,29.1,29.94,WSW,241,0.0,1.0,64,0.00,,,0.02,LWC V2.00 B2112,2013-03-03 06:20:00,
2013-03-02 22:25:00,40.9,29.3,29.94,NNW,336,0.0,1.0,63,0.00,,,0.02,LWC V2.00 B2112,2013-03-03 06:25:00,
2013-03-02 22:30:00,41.3,28.1,29.94,NW,306,1.0,4.0,59,0.00,,,0.02,LWC V2.00 B2112,2013-03-03 06:30:00,
2013-03-02 22:35:00,40.8,30.0,29.94,NW,306,0.0,0.0,65,0.00,,,0.02,LWC V2.00 B2112,2013-03-03 06:35:00,
2013-03-02 22:40:00,39.9,29.8,29.94,NW,306,0.0,0.0,67,0.00,,,0.02,LWC V2.00 B2112,2013-03-03 06:40:00,
2013-03-02 22:45:00,39.3,30.0,29.95,NW,306,0.0,0.0,69,0.00,,,0.02,LWC V2.00 B2112,2013-03-03 06:45:00,
2013-03-02 22:50:00,39.1,29.1,29.95,NW,306,0.0,0.0,67,0.00,,,0.02,LWC V2.00 B2112,2013-03-03 06:50:00,
2013-03-02 22:55:00,38.6,28.6,29.95,NW,306,0.0,1.0,67,0.00,,,0.02,LWC V2.00 B2112,2013-03-03 06:55:00,
2013-03-02 23:00:00,38.3,29.7,29.96,NW,305,2.0,2.0,71,0.00,,,0.02,LWC V2.00 B2112,2013-03-03 07:00:00,
2013-03-02 23:05:00,38.3,29.7,29.96,NW,305,0.0,0.0,71,0.00,,,0.02,LWC V2.00 B2112,2013-03-03 07:05:00,
2013-03-02 23:10:00,38.5,28.5,29.96,NNW,335,1.0,8.0,67,0.00,,,0.02,LWC V2.00 B2112,2013-03-03 07:10:00,
2013-03-02 23:15:00,38.9,27.8,29.96,NNW,329,2.0,2.0,64,0.00,,,0.02,LWC V2.00 B2112,2013-03-03 07:15:00,
2013-03-02 23:20:00,40.1,26.9,29.96,WSW,258,1.0,6.0,59,0.00,,,0.02,LWC V2.00 B2112,2013-03-03 07:20:00,
2013-03-02 23:25:00,40.8,24.1,29.96,NW,326,1.0,8.0,51,0.00,,,0.02,LWC V2.00 B2112,2013-03-03 07:25:00,
2013-03-02 23:30:00,41.3,21.6,29.96,NW,318,8.0,15.0,45,0.00,,,0.02,LWC V2.00 B2112,2013-03-03 07:30:00,
2013-03-02 23:35:00,41.6,22.4,29.96,ENE,68,0.0,0.0,46,0.00,,,0.02,LWC V2.00 B2112,2013-03-03 07:35:00,
2013-03-02 23:40:00,41.6,21.3,29.96,NNW,336,1.0,6.0,44,0.00,,,0.02,LWC V2.00 B2112,2013-03-03 07:40:00,
2013-03-02 23:45:00,41.3,21.6,29.96,WSW,239,0.0,0.0,45,0.00,,,0.02,LWC V2.00 B2112,2013-03-03 07:45:00,
2013-03-02 23:50:00,40.9,20.7,29.96,West,277,0.0,2.0,44,0.00,,,0.02,LWC V2.00 B2112,2013-03-03 07:50:00,
2013-03-02 23:55:00,40.9,20.1,29.96,ENE,59,2.0,9.0,43,0.00,,,0.02,LWC V2.00 B2112,2013-03-03 07:55:00,